createdAt,value
2022-12-29T00:01:15.999Z,10.39
2022-12-29T00:03:46.316Z,10.42
2022-12-29T00:06:16.714Z,10.49
2022-12-29T00:08:49.635Z,10.44
2022-12-29T00:11:23.782Z,10.46
2022-12-29T00:14:06.789Z,10.52
2022-12-29T00:16:38.830Z,10.49
2022-12-29T00:19:29.605Z,10.46
2022-12-29T00:22:12.736Z,10.47
2022-12-29T00:24:58.062Z,10.47
2022-12-29T00:27:41.779Z,10.43
2022-12-29T00:30:27.128Z,10.40
2022-12-29T00:33:09.831Z,10.35
2022-12-29T00:35:47.069Z,10.40
2022-12-29T00:38:30.535Z,10.44
2022-12-29T00:41:15.872Z,10.35
2022-12-29T00:43:58.547Z,10.30
2022-12-29T00:46:29.008Z,10.31
2022-12-29T00:49:11.866Z,10.25
2022-12-29T00:51:42.265Z,10.27
2022-12-29T00:54:12.919Z,10.30
2022-12-29T00:56:47.165Z,10.30
2022-12-29T00:59:17.574Z,10.29
2022-12-29T01:01:50.658Z,10.29
2022-12-29T01:04:21.178Z,10.28
2022-12-29T01:06:53.338Z,10.25
2022-12-29T01:09:35.981Z,10.23
2022-12-29T01:12:10.387Z,10.17
2022-12-29T01:14:41.804Z,10.21
2022-12-29T01:17:12.103Z,10.27
2022-12-29T01:19:43.682Z,10.28
2022-12-29T01:22:14.014Z,10.35
2022-12-29T01:24:44.403Z,10.36
2022-12-29T01:27:19.671Z,10.36
2022-12-29T01:29:50.117Z,10.37
2022-12-29T01:32:20.652Z,10.35
2022-12-29T01:34:51.035Z,10.34
2022-12-29T01:37:21.468Z,10.25
2022-12-29T01:39:51.866Z,10.27
2022-12-29T01:42:29.658Z,10.27
2022-12-29T01:45:02.278Z,10.29
2022-12-29T01:47:40.834Z,10.22
2022-12-29T01:50:15.152Z,10.26
2022-12-29T01:52:53.606Z,10.27
2022-12-29T01:55:24.485Z,10.21
2022-12-29T01:58:00.773Z,10.19
2022-12-29T02:00:31.192Z,10.23
2022-12-29T02:03:01.842Z,10.25
2022-12-29T02:05:40.416Z,10.35
2022-12-29T02:08:10.755Z,10.39
2022-12-29T02:10:42.196Z,10.41
2022-12-29T02:13:15.163Z,10.44
2022-12-29T02:16:00.060Z,10.46
2022-12-29T02:18:41.136Z,10.44
2022-12-29T02:21:57.755Z,10.46
2022-12-29T02:25:17.413Z,10.49
2022-12-29T02:28:02.621Z,10.46
2022-12-29T02:31:12.216Z,10.47
2022-12-29T02:34:02.082Z,10.50
2022-12-29T02:36:45.644Z,10.50
2022-12-29T02:39:34.475Z,10.52
2022-12-29T02:42:14.436Z,10.63
2022-12-29T02:44:58.330Z,10.62
2022-12-29T02:47:40.336Z,10.67
2022-12-29T02:50:21.344Z,10.72
2022-12-29T02:52:57.098Z,10.76
2022-12-29T02:55:24.845Z,10.79
2022-12-29T02:58:20.322Z,10.82
2022-12-29T03:01:13.013Z,10.80
2022-12-29T03:04:02.283Z,10.88
2022-12-29T03:06:53.353Z,10.89
2022-12-29T03:09:31.026Z,10.96
2022-12-29T03:12:13.590Z,10.94
2022-12-29T03:15:12.242Z,10.94
2022-12-29T03:17:55.184Z,10.94
2022-12-29T03:20:38.554Z,10.99
2022-12-29T03:23:11.830Z,10.98
2022-12-29T03:25:49.021Z,10.95
2022-12-29T03:28:26.925Z,10.94
2022-12-29T03:30:59.241Z,10.90
2022-12-29T03:33:34.235Z,10.98
2022-12-29T03:36:15.280Z,11.02
2022-12-29T03:38:51.707Z,11.02
2022-12-29T03:41:28.755Z,11.04
2022-12-29T03:43:59.254Z,11.05
2022-12-29T03:46:29.665Z,11.13
2022-12-29T03:49:00.505Z,11.14
2022-12-29T03:51:33.611Z,11.19
2022-12-29T03:54:04.665Z,11.23
2022-12-29T03:56:35.172Z,11.27
2022-12-29T03:59:06.708Z,11.28
2022-12-29T04:01:42.929Z,11.31
2022-12-29T04:04:13.560Z,11.24
2022-12-29T04:06:46.556Z,11.25
2022-12-29T04:09:17.254Z,11.24
2022-12-29T04:11:50.618Z,11.25
2022-12-29T04:14:21.913Z,11.26
2022-12-29T04:16:52.379Z,11.25
2022-12-29T04:19:22.902Z,11.25
2022-12-29T04:21:56.640Z,11.23
2022-12-29T04:24:27.486Z,11.23
2022-12-29T04:26:58.190Z,11.18
2022-12-29T04:29:48.428Z,11.16
2022-12-29T04:32:37.624Z,11.07
2022-12-29T04:35:09.532Z,11.03
2022-12-29T04:37:42.572Z,11.03
2022-12-29T04:40:15.353Z,11.00
2022-12-29T04:42:45.768Z,11.01
2022-12-29T04:45:16.351Z,11.00
2022-12-29T04:48:13.754Z,11.06
2022-12-29T04:50:54.088Z,11.09
2022-12-29T04:53:31.016Z,11.06
2022-12-29T04:56:03.518Z,11.02
2022-12-29T04:58:33.945Z,11.04
2022-12-29T05:01:04.400Z,11.04
2022-12-29T05:03:35.145Z,11.05
2022-12-29T05:06:05.575Z,11.05
2022-12-29T05:08:38.894Z,11.05
2022-12-29T05:11:09.693Z,11.09
2022-12-29T05:13:41.119Z,11.15
2022-12-29T05:16:12.335Z,11.19
2022-12-29T05:18:43.089Z,11.23
2022-12-29T05:21:13.474Z,11.24
2022-12-29T05:23:48.369Z,11.27
2022-12-29T05:26:19.188Z,11.29
2022-12-29T05:29:01.051Z,11.32
2022-12-29T05:31:32.121Z,11.30
2022-12-29T05:34:02.618Z,11.27
2022-12-29T05:36:37.695Z,11.26
2022-12-29T05:39:12.487Z,11.31
2022-12-29T05:41:43.017Z,11.21
2022-12-29T05:44:36.082Z,11.23
2022-12-29T05:47:24.978Z,11.16
2022-12-29T05:50:25.974Z,11.13
2022-12-29T05:53:15.478Z,11.14
2022-12-29T05:55:52.723Z,11.06
2022-12-29T05:58:24.554Z,11.00
2022-12-29T06:00:55.655Z,11.00
2022-12-29T06:03:26.237Z,11.01
2022-12-29T06:05:58.031Z,10.88
2022-12-29T06:08:29.729Z,10.92
2022-12-29T06:11:03.046Z,11.01
2022-12-29T06:13:33.426Z,10.98
2022-12-29T06:16:04.016Z,10.99
2022-12-29T06:18:34.753Z,10.93
2022-12-29T06:21:05.586Z,10.83
2022-12-29T06:23:36.375Z,10.80
2022-12-29T06:26:10.452Z,10.80
2022-12-29T06:28:41.643Z,10.81
2022-12-29T06:31:13.984Z,10.80
2022-12-29T06:33:49.544Z,10.82
2022-12-29T06:36:20.409Z,10.84
2022-12-29T06:38:53.514Z,10.88
2022-12-29T06:41:31.989Z,10.93
2022-12-29T06:44:21.741Z,10.95
2022-12-29T06:46:59.454Z,10.97
2022-12-29T06:49:29.807Z,10.98
2022-12-29T06:52:01.752Z,10.94
2022-12-29T06:54:32.105Z,11.01
2022-12-29T06:57:05.074Z,11.14
2022-12-29T06:59:35.500Z,11.15
2022-12-29T07:02:06.612Z,11.13
2022-12-29T07:04:37.044Z,11.19
2022-12-29T07:07:07.484Z,11.27
2022-12-29T07:09:37.879Z,11.18
2022-12-29T07:12:11.155Z,11.06
2022-12-29T07:14:43.469Z,11.04
2022-12-29T07:17:14.012Z,11.00
2022-12-29T07:19:45.340Z,10.96
2022-12-29T07:22:15.650Z,11.06
2022-12-29T07:24:46.508Z,11.00
2022-12-29T07:27:19.546Z,11.01
2022-12-29T07:29:49.967Z,10.99
2022-12-29T07:32:20.297Z,11.02
2022-12-29T07:34:50.671Z,10.95
2022-12-29T07:37:21.566Z,10.99
2022-12-29T07:39:52.035Z,10.96
2022-12-29T07:42:25.067Z,11.02
2022-12-29T07:44:56.356Z,11.16
2022-12-29T07:47:37.112Z,11.14
2022-12-29T07:50:09.473Z,11.08
2022-12-29T07:52:39.840Z,11.11
2022-12-29T07:55:11.953Z,11.14
2022-12-29T07:57:45.567Z,11.10
2022-12-29T08:00:18.119Z,11.13
2022-12-29T08:02:48.523Z,11.21
2022-12-29T08:05:19.649Z,11.29
2022-12-29T08:07:50.308Z,11.30
2022-12-29T08:10:21.241Z,11.32
2022-12-29T08:12:54.378Z,11.35
2022-12-29T08:15:30.419Z,11.29
2022-12-29T08:18:03.411Z,11.38
2022-12-29T08:20:33.815Z,11.51
2022-12-29T08:23:04.245Z,11.49
2022-12-29T08:25:34.510Z,11.50
2022-12-29T08:28:07.979Z,11.64
2022-12-29T08:30:39.433Z,11.69
2022-12-29T08:33:09.814Z,11.61
2022-12-29T08:35:40.154Z,11.60
2022-12-29T08:38:12.382Z,11.66
2022-12-29T08:40:42.903Z,11.68
2022-12-29T08:43:18.736Z,11.71
2022-12-29T08:45:49.212Z,11.63
2022-12-29T08:48:20.840Z,11.65
2022-12-29T08:50:51.670Z,11.67
2022-12-29T08:53:22.522Z,11.66
2022-12-29T08:56:05.851Z,11.66
2022-12-29T08:58:49.117Z,11.67
2022-12-29T09:01:21.771Z,11.69
2022-12-29T09:04:13.996Z,11.75
2022-12-29T09:06:42.938Z,11.92
2022-12-29T09:09:13.683Z,12.07
2022-12-29T09:11:44.358Z,12.11
2022-12-29T09:14:18.049Z,12.14
2022-12-29T09:17:00.931Z,12.32
2022-12-29T09:19:31.349Z,12.43
2022-12-29T09:22:01.764Z,12.40
2022-12-29T09:24:32.224Z,12.59
2022-12-29T09:27:02.819Z,12.44
2022-12-29T09:29:35.779Z,12.41
2022-12-29T09:32:07.938Z,13.12
2022-12-29T09:34:39.045Z,13.18
2022-12-29T09:37:09.417Z,13.22
2022-12-29T09:39:39.867Z,13.08
2022-12-29T09:42:18.492Z,12.93
2022-12-29T09:45:05.139Z,13.26
2022-12-29T09:47:35.618Z,13.89
2022-12-29T09:50:14.081Z,13.95
2022-12-29T09:52:51.523Z,13.68
2022-12-29T09:55:26.713Z,13.48
2022-12-29T09:58:02.687Z,13.01
2022-12-29T10:00:41.434Z,12.80
2022-12-29T10:03:20.130Z,12.78
2022-12-29T10:05:54.931Z,12.73
2022-12-29T10:08:42.792Z,12.79
2022-12-29T10:11:31.181Z,12.91
2022-12-29T10:14:29.779Z,13.11
2022-12-29T10:17:11.938Z,13.42
2022-12-29T10:20:05.861Z,13.50
2022-12-29T10:22:57.881Z,13.83
2022-12-29T10:25:33.009Z,13.57
2022-12-29T10:28:10.552Z,13.62
2022-12-29T10:30:42.125Z,13.65
2022-12-29T10:33:24.770Z,13.58
2022-12-29T10:35:56.193Z,13.64
2022-12-29T10:38:34.442Z,13.96
2022-12-29T10:41:16.045Z,14.18
2022-12-29T10:43:50.888Z,13.96
2022-12-29T10:46:25.827Z,13.85
2022-12-29T10:48:58.858Z,13.71
2022-12-29T10:51:34.569Z,13.89
2022-12-29T10:54:13.936Z,14.35
2022-12-29T10:56:48.441Z,14.79
2022-12-29T10:59:25.954Z,15.03
2022-12-29T11:02:09.136Z,14.84
2022-12-29T11:04:52.465Z,14.26
2022-12-29T11:07:27.415Z,13.88
2022-12-29T11:09:58.524Z,13.68
2022-12-29T11:12:32.206Z,13.61
2022-12-29T11:15:17.783Z,13.53
2022-12-29T11:17:50.921Z,13.53
2022-12-29T11:20:38.446Z,13.48
2022-12-29T11:23:29.655Z,13.29
2022-12-29T11:26:18.296Z,13.20
2022-12-29T11:28:51.035Z,13.19
2022-12-29T11:31:22.488Z,13.18
2022-12-29T11:33:52.886Z,13.23
2022-12-29T11:36:29.000Z,13.15
2022-12-29T11:39:00.156Z,13.04
2022-12-29T11:41:33.271Z,13.05
2022-12-29T11:44:06.976Z,13.11
2022-12-29T11:46:42.931Z,13.10
2022-12-29T11:49:23.319Z,13.14
2022-12-29T11:51:59.146Z,13.21
2022-12-29T11:54:35.024Z,13.69
2022-12-29T11:57:16.886Z,13.81
2022-12-29T11:59:56.201Z,13.62
2022-12-29T12:02:43.243Z,13.70
2022-12-29T12:05:31.715Z,13.91
2022-12-29T12:08:16.253Z,13.73
2022-12-29T12:10:57.707Z,14.00
2022-12-29T12:13:36.846Z,14.56
2022-12-29T12:16:13.116Z,14.84
2022-12-29T12:18:51.002Z,14.62
2022-12-29T12:21:31.095Z,14.65
2022-12-29T12:24:25.676Z,14.73
2022-12-29T12:27:04.944Z,14.79
2022-12-29T12:29:44.296Z,14.35
2022-12-29T12:32:21.649Z,14.25
2022-12-29T12:34:53.737Z,14.23
2022-12-29T12:37:52.170Z,14.06
2022-12-29T12:40:52.563Z,14.00
2022-12-29T12:43:42.014Z,14.19
2022-12-29T12:46:29.173Z,14.93
2022-12-29T12:49:39.639Z,15.48
2022-12-29T12:52:20.839Z,15.47
2022-12-29T12:55:14.884Z,15.25
2022-12-29T12:58:00.280Z,14.91
2022-12-29T13:00:38.047Z,14.57
2022-12-29T13:03:16.715Z,14.14
2022-12-29T13:06:06.530Z,14.07
2022-12-29T13:09:17.903Z,13.97
2022-12-29T13:12:00.197Z,13.81
2022-12-29T13:14:48.517Z,13.74
2022-12-29T13:17:30.672Z,13.76
2022-12-29T13:20:11.271Z,13.69
2022-12-29T13:22:51.356Z,13.66
2022-12-29T13:25:34.408Z,13.55
2022-12-29T13:28:13.747Z,13.47
2022-12-29T13:30:57.081Z,13.37
2022-12-29T13:33:40.271Z,13.28
2022-12-29T13:36:24.120Z,13.25
2022-12-29T13:39:06.189Z,13.15
2022-12-29T13:41:43.038Z,13.15
2022-12-29T13:44:20.371Z,13.28
2022-12-29T13:46:54.069Z,13.25
2022-12-29T13:49:27.574Z,13.27
2022-12-29T13:52:01.555Z,13.28
2022-12-29T13:54:45.145Z,13.23
2022-12-29T13:57:28.234Z,13.27
2022-12-29T14:00:06.709Z,13.34
2022-12-29T14:03:30.660Z,13.37
2022-12-29T14:06:18.554Z,13.32
2022-12-29T14:08:49.278Z,13.36
2022-12-29T14:11:22.759Z,13.34
2022-12-29T14:13:53.332Z,13.36
2022-12-29T14:16:37.119Z,13.41
2022-12-29T14:19:19.453Z,13.35
2022-12-29T14:21:59.276Z,13.32
2022-12-29T14:24:49.008Z,13.21
2022-12-29T14:27:57.431Z,13.18
2022-12-29T14:30:56.144Z,13.02
2022-12-29T14:33:28.353Z,12.84
2022-12-29T14:36:25.350Z,12.72
2022-12-29T14:38:55.858Z,12.68
2022-12-29T14:41:34.231Z,12.47
2022-12-29T14:44:16.456Z,12.45
2022-12-29T14:46:59.314Z,12.49
2022-12-29T14:49:32.833Z,12.40
2022-12-29T14:52:23.372Z,12.46
2022-12-29T14:54:57.550Z,12.45
2022-12-29T14:57:38.360Z,12.34
2022-12-29T15:00:23.149Z,12.28
2022-12-29T15:03:07.108Z,12.30
2022-12-29T15:05:45.599Z,12.21
2022-12-29T15:08:23.921Z,12.33
2022-12-29T15:11:01.337Z,12.30
2022-12-29T15:13:39.534Z,12.25
2022-12-29T15:16:26.307Z,12.22
2022-12-29T15:18:57.560Z,12.21
2022-12-29T15:21:31.315Z,12.23
2022-12-29T15:24:05.229Z,12.19
2022-12-29T15:26:43.692Z,12.22
2022-12-29T15:29:36.862Z,12.08
2022-12-29T15:32:25.653Z,12.11
2022-12-29T15:34:59.358Z,12.04
2022-12-29T15:37:32.459Z,12.12
2022-12-29T15:40:05.806Z,12.14
2022-12-29T15:43:03.793Z,12.08
2022-12-29T15:45:37.991Z,12.15
2022-12-29T15:48:11.823Z,12.14
2022-12-29T15:50:45.054Z,12.16
2022-12-29T15:53:25.761Z,12.03
2022-12-29T15:56:03.778Z,11.96
2022-12-29T15:58:35.591Z,11.87
2022-12-29T16:01:06.316Z,11.89
2022-12-29T16:03:40.432Z,11.84
2022-12-29T16:06:15.021Z,11.83
2022-12-29T16:08:45.389Z,11.86
2022-12-29T16:11:29.423Z,11.89
2022-12-29T16:14:00.883Z,11.89
2022-12-29T16:16:36.183Z,11.94
2022-12-29T16:19:17.635Z,11.86
2022-12-29T16:21:49.168Z,11.82
2022-12-29T16:24:23.384Z,11.83
2022-12-29T16:27:03.901Z,11.80
2022-12-29T16:29:35.277Z,11.83
2022-12-29T16:32:06.537Z,11.85
2022-12-29T16:34:47.682Z,11.81
2022-12-29T16:37:32.517Z,11.75
2022-12-29T16:40:31.318Z,11.69
2022-12-29T16:43:08.322Z,11.67
2022-12-29T16:46:27.738Z,11.58
2022-12-29T16:49:00.205Z,11.61
2022-12-29T16:51:36.585Z,11.60
2022-12-29T16:54:08.538Z,11.52
2022-12-29T16:56:40.476Z,11.55
2022-12-29T16:59:35.030Z,11.50
2022-12-29T17:02:12.626Z,11.39
2022-12-29T17:04:43.383Z,11.33
2022-12-29T17:07:21.470Z,11.27
2022-12-29T17:09:54.220Z,11.31
2022-12-29T17:12:29.280Z,11.33
2022-12-29T17:15:06.208Z,11.38
2022-12-29T17:17:38.742Z,11.38
2022-12-29T17:20:19.881Z,11.30
2022-12-29T17:22:51.354Z,11.19
2022-12-29T17:25:23.243Z,11.19
2022-12-29T17:27:58.071Z,11.22
2022-12-29T17:30:38.644Z,11.22
2022-12-29T17:33:13.828Z,11.21
2022-12-29T17:35:44.985Z,11.27
2022-12-29T17:38:23.976Z,11.37
2022-12-29T17:40:54.678Z,11.45
2022-12-29T17:43:25.180Z,11.43
2022-12-29T17:46:00.587Z,11.42
2022-12-29T17:48:31.015Z,11.44
2022-12-29T17:51:01.797Z,11.42
2022-12-29T17:53:33.907Z,11.35
2022-12-29T17:56:04.301Z,11.42
2022-12-29T17:58:36.357Z,11.36
2022-12-29T18:01:10.399Z,11.36
2022-12-29T18:03:43.465Z,11.50
2022-12-29T18:06:15.552Z,11.41
2022-12-29T18:08:47.513Z,11.41
2022-12-29T18:11:27.948Z,11.33
2022-12-29T18:13:58.800Z,11.24
2022-12-29T18:16:31.889Z,11.22
2022-12-29T18:19:02.430Z,11.19
2022-12-29T18:21:32.810Z,11.15
2022-12-29T18:24:03.250Z,11.24
2022-12-29T18:26:35.849Z,11.31
2022-12-29T18:29:06.575Z,11.32
2022-12-29T18:31:40.487Z,11.36
2022-12-29T18:34:17.880Z,11.33
2022-12-29T18:36:48.601Z,11.32
2022-12-29T18:39:19.035Z,11.39
2022-12-29T18:41:49.448Z,11.46
2022-12-29T18:44:20.565Z,11.43
2022-12-29T18:46:55.064Z,11.40
2022-12-29T18:49:25.684Z,11.49
2022-12-29T18:51:56.059Z,11.52
2022-12-29T18:54:31.844Z,11.46
2022-12-29T18:57:02.523Z,11.45
2022-12-29T18:59:33.018Z,11.44
2022-12-29T19:02:06.050Z,11.40
2022-12-29T19:04:36.607Z,11.42
2022-12-29T19:07:07.076Z,11.43
2022-12-29T19:09:38.091Z,11.42
2022-12-29T19:12:08.765Z,11.36
2022-12-29T19:14:39.165Z,11.41
2022-12-29T19:17:13.301Z,11.45
2022-12-29T19:19:43.920Z,11.32
2022-12-29T19:22:14.395Z,11.36
2022-12-29T19:24:49.207Z,11.42
2022-12-29T19:27:19.588Z,11.39
2022-12-29T19:29:50.217Z,11.33
2022-12-29T19:32:25.473Z,11.31
2022-12-29T19:34:55.867Z,11.31
2022-12-29T19:37:30.410Z,11.31
2022-12-29T19:40:09.871Z,11.32
2022-12-29T19:42:50.664Z,11.30
2022-12-29T19:45:23.621Z,11.25
2022-12-29T19:47:58.112Z,11.23
2022-12-29T19:50:32.968Z,11.15
2022-12-29T19:53:05.539Z,11.13
2022-12-29T19:55:39.275Z,11.10
2022-12-29T19:58:09.815Z,11.04
2022-12-29T20:00:45.874Z,11.07
2022-12-29T20:03:19.460Z,11.00
2022-12-29T20:05:52.450Z,11.00
2022-12-29T20:08:28.741Z,10.94
2022-12-29T20:11:03.779Z,10.96
2022-12-29T20:13:35.347Z,10.98
2022-12-29T20:16:16.515Z,10.91
2022-12-29T20:18:53.962Z,10.86
2022-12-29T20:21:28.477Z,10.80
2022-12-29T20:24:03.608Z,10.65
2022-12-29T20:26:37.823Z,10.67
2022-12-29T20:29:08.476Z,10.56
2022-12-29T20:31:43.085Z,10.54
2022-12-29T20:34:19.040Z,10.57
2022-12-29T20:36:56.710Z,10.62
2022-12-29T20:39:31.892Z,10.62
2022-12-29T20:42:15.830Z,10.58
2022-12-29T20:44:49.055Z,10.45
2022-12-29T20:47:20.149Z,10.39
2022-12-29T20:49:59.520Z,10.29
2022-12-29T20:52:30.381Z,10.23
2022-12-29T20:55:10.846Z,10.18
2022-12-29T21:00:32.970Z,10.21
2022-12-29T21:03:03.793Z,10.12
2022-12-29T21:05:40.475Z,10.18
2022-12-29T21:08:11.748Z,10.25
2022-12-29T21:10:42.464Z,10.06
2022-12-29T21:13:12.962Z,10.10
2022-12-29T21:15:43.359Z,10.03
2022-12-29T21:18:13.814Z,10.01
2022-12-29T21:20:46.824Z,9.95
2022-12-29T21:23:17.085Z,9.92
2022-12-29T21:25:48.039Z,9.95
2022-12-29T21:28:18.828Z,10.00
2022-12-29T21:30:49.711Z,10.07
2022-12-29T21:33:20.824Z,10.05
2022-12-29T21:35:54.094Z,10.16
2022-12-29T21:38:24.459Z,10.13
2022-12-29T21:40:54.842Z,10.14
2022-12-29T21:43:25.185Z,10.02
2022-12-29T21:45:53.108Z,10.01
2022-12-29T21:48:26.637Z,10.03
2022-12-29T21:51:18.727Z,10.01
2022-12-29T21:53:49.132Z,10.03
2022-12-29T21:56:22.725Z,10.08
2022-12-29T21:59:06.917Z,10.07
2022-12-29T22:01:52.304Z,9.99
2022-12-29T22:04:38.103Z,10.01
2022-12-29T22:07:26.891Z,10.04
2022-12-29T22:10:09.602Z,9.99
2022-12-29T22:12:52.699Z,10.02
2022-12-29T22:15:23.050Z,10.00
2022-12-29T22:17:55.704Z,9.95
2022-12-29T22:20:28.613Z,9.96
2022-12-29T22:23:02.345Z,9.88
2022-12-29T22:25:32.821Z,9.83
2022-12-29T22:28:03.243Z,9.85
2022-12-29T22:30:34.218Z,9.81
2022-12-29T22:33:04.565Z,9.77
2022-12-29T22:35:34.903Z,9.77
2022-12-29T22:38:08.245Z,9.73
2022-12-29T22:40:38.551Z,9.64
2022-12-29T22:43:13.087Z,9.76
2022-12-29T22:45:44.545Z,9.77
2022-12-29T22:48:14.571Z,9.71
2022-12-29T22:50:44.854Z,9.65
2022-12-29T22:53:17.749Z,9.66
2022-12-29T22:55:48.090Z,9.61
2022-12-29T22:58:18.431Z,9.70
2022-12-29T23:00:48.717Z,9.72
2022-12-29T23:03:19.284Z,9.70
2022-12-29T23:06:00.037Z,9.67
2022-12-29T23:08:37.600Z,9.72
2022-12-29T23:11:11.751Z,9.76
2022-12-29T23:13:45.243Z,9.80
2022-12-29T23:16:16.351Z,9.77
2022-12-29T23:18:47.612Z,9.76
2022-12-29T23:21:19.467Z,9.72
2022-12-29T23:24:04.135Z,9.64
2022-12-29T23:26:38.918Z,9.71
2022-12-29T23:29:12.675Z,9.73
2022-12-29T23:31:44.100Z,9.73
2022-12-29T23:34:16.785Z,9.81
2022-12-29T23:36:47.115Z,9.74
2022-12-29T23:39:26.588Z,9.72
2022-12-29T23:41:56.882Z,9.66
2022-12-29T23:44:27.426Z,9.63
2022-12-29T23:46:57.833Z,9.71
2022-12-29T23:49:28.327Z,9.72
2022-12-29T23:51:58.828Z,9.69
2022-12-29T23:54:31.792Z,9.77
2022-12-29T23:57:02.184Z,9.87
2022-12-29T23:59:32.687Z,10.01
